LiveATC.Net - Listen to live air traffic control over the Internet!


ICAO: OPLA  IATA: LHE   Airport: Allama Iqbal International Airport
City: Lahore
Country: Pakistan   Continent: Asia
OPLA METAR Weather: OPLA 120555Z 08008KT 4000 FU FEW040 SCT100 15/10 Q1020 BECMG 3000 RMK QFE994 RMK A30.11
OPLA Flight Activity (FlightAware)

OPLA ATIS
Feed Status: DOWN
Last heard on: 2018-12-11 12:43:03 (0 days 17 hours 50 minutes ago)
OPLA ATIS Audio Archives
FacilityFrequency
Lahore ATIS126.300

OPLA/OPLH Gnd/Twr/App
Feed Status: DOWN
Last heard on: 2018-12-11 12:43:03 (0 days 17 hours 50 minutes ago)
OPLA/OPLH Gnd/Twr/App Audio Archives
FacilityFrequency
Lahore Approach121.300
Lahore Approach125.300
Lahore Control127.500
Lahore Ground118.400
Lahore Tower118.100
Lahore Tower121.800
Walton (OPLH) Tower119.400

NOTICE

Unauthorized use prohibited. See LiveATC.net Terms of Service


Find LiveATC Audio Streams


Airport/ARTCC Code

Frequency Search
(e.g., 124.400, 128.75)
Site-wide search
 


Browse LiveATC Feeds
Top 50 LiveATC Feeds
Bad Weather Areas

LiveATC FAQ
Offer a LiveATC Feed
Contact LiveATC.net
Press Inquiries

LiveATC on iPhone
LiveATC on Android

Windows Phone
Windows 8/10

LiveATC Mobile
(Mobile browser)

ATC Audio Archives
Interesting Recordings

LiveATC Forums


Home Page
About LiveATC.net
Make a Donation
Terms of Use
Privacy Policy

Canadian Air Freqs

AIRMETs/SIGMETs

FAA Airport Status
Nat'l Airspace Status
Arrival Demand Charts


Server Software By:
Icecast.org
Liquidsoap